Time;durP1;ratioP1;P1;durP2;ratioP2;P2;SDS_P1;SDS_P2;PMS_P1;PMS_P2;Temp;Humidity;BMP_temperature;BMP_pressure;BME280_temperature;BME280_humidity;BME280_pressure;Samples;Min_cycle;Max_cycle;Signal;HPM_P1;HPM_P2
2022/03/12 00:01:29;;;;;;;19.58;11.48;;;;;;;11.89;34.48;101043.94;3588156;40;20038;-63
2022/03/12 00:03:55;;;;;;;18.23;11.30;;;;;;;11.90;34.80;101040.28;3589041;40;20129;-63
2022/03/12 00:06:23;;;;;;;17.52;11.48;;;;;;;11.89;35.21;101033.16;3591262;40;20059;-63
2022/03/12 00:08:51;;;;;;;17.65;11.55;;;;;;;11.90;34.90;101025.00;3590713;40;20040;-62
2022/03/12 00:11:23;;;;;;;20.67;11.38;;;;;;;11.90;35.38;101035.75;3591610;40;20050;-63
2022/03/12 00:13:52;;;;;;;18.77;11.65;;;;;;;11.90;35.10;101041.16;3591507;40;20052;-63
2022/03/12 00:16:26;;;;;;;16.73;11.63;;;;;;;11.89;35.41;101036.69;3589396;40;20375;-63
2022/03/12 00:18:58;;;;;;;16.30;11.15;;;;;;;11.89;35.62;101034.00;3591044;40;20052;-63
2022/03/12 00:21:27;;;;;;;15.80;11.20;;;;;;;11.89;36.19;101041.22;3590720;40;20064;-62
2022/03/12 00:23:55;;;;;;;18.05;11.65;;;;;;;11.88;36.10;101047.59;3589681;40;20039;-63
2022/03/12 00:26:22;;;;;;;16.55;11.27;;;;;;;11.88;36.03;101056.53;3591695;40;20051;-63
2022/03/12 00:28:50;;;;;;;17.13;11.43;;;;;;;11.90;35.40;101051.06;3583715;40;20404;-63
2022/03/12 00:31:16;;;;;;;17.83;11.18;;;;;;;11.91;35.46;101048.25;3591619;40;20063;-63
2022/03/12 00:33:41;;;;;;;20.90;11.30;;;;;;;11.92;35.84;101060.75;3589426;40;20428;-62
2022/03/12 00:36:09;;;;;;;17.67;11.93;;;;;;;11.93;35.76;101057.13;3591306;40;20068;-63
2022/03/12 00:38:35;;;;;;;15.23;11.10;;;;;;;11.85;35.64;101043.25;3591624;40;20047;-63
2022/03/12 00:41:02;;;;;;;16.58;11.40;;;;;;;11.95;36.19;101065.94;3584093;40;20044;-63
2022/03/12 00:43:28;;;;;;;15.82;10.90;;;;;;;11.94;36.60;101061.53;3595607;39;20270;-63
2022/03/12 00:45:53;;;;;;;18.38;12.23;;;;;;;11.84;37.50;101055.88;3594542;39;20044;-63
2022/03/12 00:48:19;;;;;;;16.83;11.90;;;;;;;11.90;38.42;101069.91;3594026;40;20067;-62
2022/03/12 00:50:45;;;;;;;18.23;12.18;;;;;;;11.87;38.91;101059.34;3595109;39;20051;-63
2022/03/12 00:53:11;;;;;;;20.30;11.68;;;;;;;11.80;38.70;101065.09;3594520;39;20072;-63
2022/03/12 00:55:36;;;;;;;17.77;11.88;;;;;;;11.76;39.41;101060.81;3594378;39;20460;-62
2022/03/12 00:58:03;;;;;;;19.67;11.65;;;;;;;11.70;39.83;101063.91;3590658;40;20051;-62
2022/03/12 01:00:29;;;;;;;18.83;11.38;;;;;;;11.70;39.77;101061.22;3591789;39;20055;-63
2022/03/12 01:02:55;;;;;;;21.75;11.85;;;;;;;11.69;39.75;101069.41;3593750;39;20047;-63
2022/03/12 01:05:55;;;;;;;17.95;11.80;;;;;;;11.56;39.66;101053.16;3593222;39;20067;-63
2022/03/12 01:08:25;;;;;;;17.45;12.32;;;;;;;11.67;39.90;101063.22;3589698;40;20108;-62
2022/03/12 01:10:53;;;;;;;18.13;12.43;;;;;;;11.51;39.38;101049.88;3591129;40;20386;-63
2022/03/12 01:13:20;;;;;;;18.45;11.32;;;;;;;11.65;39.59;101074.13;3590075;40;20063;-62
2022/03/12 01:15:47;;;;;;;17.05;11.70;;;;;;;11.32;39.80;101024.13;3591803;40;20043;-63
2022/03/12 01:18:16;;;;;;;17.30;11.48;;;;;;;11.67;39.42;101071.31;3587134;40;20091;-63
2022/03/12 01:20:42;;;;;;;21.65;12.43;;;;;;;11.69;39.66;101077.47;3592020;40;20064;-63
2022/03/12 01:23:13;;;;;;;17.00;12.13;;;;;;;11.63;40.24;101076.88;3589965;40;20115;-63
2022/03/12 01:25:41;;;;;;;19.48;12.05;;;;;;;11.64;41.44;101083.16;3590397;39;20036;-63
2022/03/12 01:28:09;;;;;;;17.75;12.35;;;;;;;11.48;42.03;101067.09;3589216;40;20051;-63
2022/03/12 01:30:35;;;;;;;18.10;12.00;;;;;;;11.57;42.58;101081.78;3591010;40;20087;-63
2022/03/12 01:33:00;;;;;;;20.50;12.65;;;;;;;11.46;43.79;101074.38;3587914;40;20091;-64
2022/03/12 01:35:26;;;;;;;17.45;12.48;;;;;;;11.27;43.78;101063.88;3592765;39;20405;-64
2022/03/12 01:37:53;;;;;;;21.80;12.40;;;;;;;11.43;44.84;101092.56;3589872;39;20048;-64
2022/03/12 01:40:19;;;;;;;19.27;12.27;;;;;;;11.38;45.36;101093.72;3593533;39;20313;-64
2022/03/12 01:42:46;;;;;;;18.52;12.13;;;;;;;11.33;44.66;101094.94;3590596;40;20052;-63
2022/03/12 01:45:23;;;;;;;18.77;12.43;;;;;;;11.27;45.83;101096.19;3589275;39;20885;-63
2022/03/12 01:47:48;;;;;;;19.25;12.20;;;;;;;11.20;46.66;101089.44;3590761;40;20054;-63
2022/03/12 01:50:20;;;;;;;18.25;13.00;;;;;;;11.02;46.80;101074.41;3593456;39;20055;-63
2022/03/12 01:52:46;;;;;;;16.45;12.23;;;;;;;11.09;47.89;101098.13;3591416;40;20058;-63
2022/03/12 01:55:11;;;;;;;22.70;13.50;;;;;;;11.03;48.19;101092.25;3589848;39;20873;-63
2022/03/12 01:57:37;;;;;;;18.83;12.70;;;;;;;10.85;47.62;101068.19;3590247;40;20059;-64
2022/03/12 02:00:04;;;;;;;20.40;13.48;;;;;;;10.96;48.90;101091.75;3590448;39;20421;-64
2022/03/12 02:02:30;;;;;;;19.10;12.27;;;;;;;10.93;47.70;101084.72;3589899;40;20052;-64
2022/03/12 02:04:56;;;;;;;19.50;12.65;;;;;;;10.92;47.55;101083.00;3590838;39;20075;-63
2022/03/12 02:07:22;;;;;;;18.65;12.25;;;;;;;10.92;48.05;101091.06;3590070;40;20066;-63
2022/03/12 02:09:49;;;;;;;19.52;12.70;;;;;;;10.92;47.56;101085.69;3590932;40;20052;-63
2022/03/12 02:12:15;;;;;;;18.13;12.55;;;;;;;10.90;47.90;101075.97;3588601;40;20051;-63
2022/03/12 02:14:40;;;;;;;20.05;12.68;;;;;;;10.96;46.79;101085.53;3590887;40;20060;-64
2022/03/12 02:17:11;;;;;;;17.77;12.43;;;;;;;10.97;48.09;101084.56;3588844;40;20052;-63
2022/03/12 02:19:40;;;;;;;18.52;12.40;;;;;;;11.00;47.54;101087.06;3590267;40;20056;-63
2022/03/12 02:22:13;;;;;;;18.88;12.50;;;;;;;11.03;47.80;101092.25;3588425;40;20062;-63
2022/03/12 02:24:39;;;;;;;17.95;11.85;;;;;;;10.90;47.68;101074.16;3588900;40;20141;-63
2022/03/12 02:27:10;;;;;;;17.38;12.02;;;;;;;11.06;47.86;101094.75;3591088;40;20302;-63
2022/03/12 02:29:37;;;;;;;18.17;12.50;;;;;;;10.83;47.33;101048.59;3588784;40;20125;-63
2022/03/12 02:32:09;;;;;;;17.30;12.35;;;;;;;11.07;47.99;101093.84;3590179;40;20055;-63
2022/03/12 02:34:46;;;;;;;17.67;11.75;;;;;;;11.07;47.99;101093.84;3590299;40;20051;-63
2022/03/12 02:37:25;;;;;;;18.73;11.63;;;;;;;11.08;48.45;101099.09;3589175;40;20137;-63
2022/03/12 02:39:50;;;;;;;18.15;11.73;;;;;;;11.09;48.72;101103.53;3587747;40;20060;-63
2022/03/12 02:42:19;;;;;;;17.70;11.77;;;;;;;11.10;48.03;101101.69;3589659;40;20059;-63
2022/03/12 02:44:47;;;;;;;18.98;11.88;;;;;;;11.09;48.48;101105.34;3591369;40;20040;-63
2022/03/12 02:47:16;;;;;;;17.70;12.32;;;;;;;11.11;48.18;101106.13;3590527;40;20052;-62
2022/03/12 02:49:52;;;;;;;18.13;12.10;;;;;;;11.08;48.60;101106.31;3590456;40;20310;-63
2022/03/12 02:52:20;;;;;;;18.77;11.82;;;;;;;11.12;48.10;101113.25;3589947;40;20122;-63
2022/03/12 02:54:48;;;;;;;18.05;11.90;;;;;;;11.02;47.30;101098.59;3592563;40;20267;-63
2022/03/12 02:57:14;;;;;;;18.00;11.85;;;;;;;11.10;47.25;101116.03;3589612;40;20048;-63
2022/03/12 02:59:43;;;;;;;16.77;11.85;;;;;;;11.08;47.77;101117.06;3590134;40;20091;-63
2022/03/12 03:02:12;;;;;;;20.85;12.80;;;;;;;11.06;47.79;101122.53;3588512;40;20133;-63
2022/03/12 03:04:41;;;;;;;18.45;12.68;;;;;;;10.99;47.79;101118.47;3590409;40;20060;-63
2022/03/12 03:07:10;;;;;;;19.33;12.68;;;;;;;11.00;47.92;101120.19;3589873;40;20121;-62
2022/03/12 03:09:37;;;;;;;20.33;12.45;;;;;;;10.93;48.23;101125.06;3590552;40;20080;-63
2022/03/12 03:12:09;;;;;;;20.58;12.43;;;;;;;10.85;48.64;101113.06;3590201;39;20088;-63
2022/03/12 03:14:42;;;;;;;18.45;12.88;;;;;;;10.78;48.21;101122.41;3588291;40;20117;-63
2022/03/12 03:17:10;;;;;;;22.83;12.95;;;;;;;10.71;49.87;101129.97;3588373;40;20071;-62
2022/03/12 03:19:36;;;;;;;17.80;12.02;;;;;;;10.59;50.49;101130.66;3588318;40;20060;-63
2022/03/12 03:22:01;;;;;;;20.67;12.43;;;;;;;10.54;50.35;101132.78;3591470;39;20060;-62
2022/03/12 03:24:28;;;;;;;18.85;11.90;;;;;;;10.47;51.08;101131.41;3589730;40;20063;-63
2022/03/12 03:26:57;;;;;;;15.20;11.70;;;;;;;10.42;51.31;101137.00;3590560;40;20063;-62
2022/03/12 03:29:30;;;;;;;18.42;11.82;;;;;;;10.34;52.75;101132.09;3589343;40;20048;-62
2022/03/12 03:32:00;;;;;;;15.27;11.45;;;;;;;10.26;53.85;101133.41;3589152;40;20067;-63
2022/03/12 03:34:26;;;;;;;15.80;10.85;;;;;;;10.18;53.92;101131.13;3590141;40;20390;-63
2022/03/12 03:36:52;;;;;;;16.48;11.40;;;;;;;10.18;55.23;101140.09;3590389;40;20059;-63
2022/03/12 03:39:18;;;;;;;15.88;11.00;;;;;;;9.63;54.68;101050.94;3589299;40;20055;-63
2022/03/12 03:41:44;;;;;;;17.15;10.88;;;;;;;10.09;55.86;101140.59;3588536;40;20051;-62
2022/03/12 03:44:11;;;;;;;16.02;11.52;;;;;;;9.96;55.60;101126.97;3591203;40;20079;-62
2022/03/12 03:46:37;;;;;;;14.85;11.32;;;;;;;9.98;56.14;101138.47;3590050;39;20332;-62
2022/03/12 03:49:05;;;;;;;17.55;10.95;;;;;;;9.96;56.18;101145.78;3592414;39;20063;-63
2022/03/12 03:51:37;;;;;;;15.98;11.25;;;;;;;9.94;55.84;101144.97;3590559;40;20068;-62
2022/03/12 03:54:07;;;;;;;18.73;11.27;;;;;;;9.92;56.43;101154.06;3591887;40;20344;-63
2022/03/12 03:56:34;;;;;;;18.10;11.40;;;;;;;9.90;56.76;101148.78;3611509;22;20154;-64
2022/03/12 03:58:59;;;;;;;14.93;10.52;;;;;;;9.89;56.85;101147.03;3590544;39;20291;-61
2022/03/12 04:01:25;;;;;;;14.43;10.00;;;;;;;9.87;57.98;101153.44;3590378;39;20074;-62
2022/03/12 04:03:51;;;;;;;15.20;10.82;;;;;;;9.87;58.49;101157.00;3590655;39;20047;-62
2022/03/12 04:06:22;;;;;;;13.88;9.98;;;;;;;9.83;58.76;101158.13;3592103;39;20067;-62
2022/03/12 04:08:49;;;;;;;12.90;9.13;;;;;;;9.81;59.03;101156.47;3601649;39;20305;-63
2022/03/12 04:11:18;;;;;;;13.50;9.40;;;;;;;9.77;59.72;101163.81;3599787;39;20058;-63
2022/03/12 04:13:46;;;;;;;13.45;9.07;;;;;;;9.73;59.64;101159.53;3600571;39;20047;-63
2022/03/12 04:16:14;;;;;;;13.63;9.10;;;;;;;9.68;61.05;101164.31;3599541;39;20052;-63
2022/03/12 04:18:42;;;;;;;11.80;8.77;;;;;;;9.66;62.14;101171.56;3600192;39;20059;-63
2022/03/12 04:21:09;;;;;;;11.75;8.63;;;;;;;9.61;62.66;101168.22;3598989;39;20065;-63
2022/03/12 04:23:36;;;;;;;12.55;8.52;;;;;;;9.65;63.24;101169.84;3597150;39;20044;-63
2022/03/12 04:26:02;;;;;;;11.10;8.02;;;;;;;9.64;63.47;101176.13;3601633;39;20124;-63
2022/03/12 04:28:32;;;;;;;12.27;7.85;;;;;;;9.60;63.20;101166.50;3600072;39;20050;-63
2022/03/12 04:31:03;;;;;;;10.55;7.85;;;;;;;9.62;63.06;101178.03;3597762;39;20098;-63
2022/03/12 04:33:30;;;;;;;12.32;8.00;;;;;;;9.34;63.34;101138.34;3598076;39;20059;-63
2022/03/12 04:35:58;;;;;;;10.48;7.90;;;;;;;9.49;62.96;101176.00;3599818;39;20056;-63
2022/03/12 04:38:25;;;;;;;10.30;8.45;;;;;;;9.45;63.39;101174.44;3597526;39;20372;-63
2022/03/12 04:40:55;;;;;;;10.75;8.43;;;;;;;9.43;64.56;101176.31;3600675;39;20091;-63
2022/03/12 04:43:25;;;;;;;12.63;8.27;;;;;;;9.39;64.47;101181.94;3599886;39;20044;-63
2022/03/12 04:45:52;;;;;;;10.88;7.93;;;;;;;9.20;64.51;101156.03;3596289;39;20054;-63
2022/03/12 04:48:21;;;;;;;12.02;8.10;;;;;;;9.32;65.27;101173.28;3600408;39;20167;-62
2022/03/12 04:50:50;;;;;;;11.25;8.60;;;;;;;9.31;65.28;101176.94;3599311;39;20112;-63
2022/03/12 04:53:15;;;;;;;11.95;7.93;;;;;;;9.14;64.77;101158.16;3599025;39;20418;-63
2022/03/12 04:55:43;;;;;;;11.02;8.13;;;;;;;9.13;65.24;101157.25;3600585;39;20060;-63
2022/03/12 04:58:10;;;;;;;10.27;7.40;;;;;;;9.09;65.47;101154.81;3598641;39;20091;-63
2022/03/12 05:00:38;;;;;;;11.77;7.88;;;;;;;9.16;66.13;101175.03;3597812;39;20156;-63
2022/03/12 05:03:13;;;;;;;11.63;7.47;;;;;;;9.24;66.77;101186.25;3593930;39;20360;-64
2022/03/12 05:05:42;;;;;;;11.15;7.70;;;;;;;9.24;67.15;101187.09;3598712;39;20091;-64
2022/03/12 05:08:15;;;;;;;8.63;6.43;;;;;;;9.24;67.65;101186.25;3599927;39;20161;-63
2022/03/12 05:10:49;;;;;;;8.57;7.00;;;;;;;9.09;68.57;101149.47;3598035;39;20298;-63
2022/03/12 05:13:22;;;;;;;7.72;6.03;;;;;;;9.32;68.57;101189.38;3597812;39;20377;-63
2022/03/12 05:15:48;;;;;;;8.55;6.63;;;;;;;9.28;68.67;101187.81;3598079;39;20125;-63
2022/03/12 05:18:13;;;;;;;8.13;6.65;;;;;;;9.30;68.46;101191.31;3598490;39;20068;-62
2022/03/12 05:20:46;;;;;;;9.75;6.55;;;;;;;8.85;69.28;101114.91;3600852;39;20063;-63
2022/03/12 05:23:13;;;;;;;8.35;6.13;;;;;;;9.32;68.70;101200.13;3601270;39;20044;-65
2022/03/12 05:25:43;;;;;;;10.93;7.10;;;;;;;9.33;69.11;101211.75;3597813;39;20120;-63
2022/03/12 05:28:16;;;;;;;9.77;6.88;;;;;;;9.30;68.38;101210.09;3596774;39;20070;-63
2022/03/12 05:30:47;;;;;;;9.70;7.13;;;;;;;9.26;67.92;101211.16;3598077;39;20047;-63
2022/03/12 05:33:14;;;;;;;9.93;7.45;;;;;;;9.20;68.33;101203.44;3599311;39;20076;-63
2022/03/12 05:35:41;;;;;;;10.20;7.15;;;;;;;9.17;67.94;101217.00;3597860;39;20047;-63
2022/03/12 05:38:11;;;;;;;8.63;7.25;;;;;;;9.14;68.07;101217.16;3601366;39;20103;-63
2022/03/12 05:40:39;;;;;;;12.05;7.55;;;;;;;9.10;68.53;101226.28;3599004;39;20059;-63
2022/03/12 05:43:09;;;;;;;11.43;7.68;;;;;;;8.97;68.23;101208.09;3598276;39;20062;-63
2022/03/12 05:45:36;;;;;;;11.10;7.60;;;;;;;9.04;68.94;101227.47;3597878;39;20134;-63
2022/03/12 05:48:01;;;;;;;12.05;8.07;;;;;;;9.06;69.19;101230.94;3597930;39;20061;-63
2022/03/12 05:50:27;;;;;;;10.57;7.63;;;;;;;9.07;69.04;101232.69;3597460;39;20060;-63
2022/03/12 05:52:54;;;;;;;11.07;8.30;;;;;;;9.07;69.17;101238.06;3600594;39;20039;-64
2022/03/12 05:55:23;;;;;;;9.23;7.53;;;;;;;9.06;68.86;101238.97;3598975;39;20141;-63
2022/03/12 05:57:50;;;;;;;11.93;8.45;;;;;;;9.04;68.78;101239.06;3598052;39;20055;-63
2022/03/12 06:00:18;;;;;;;10.25;7.78;;;;;;;9.03;68.83;101237.31;3598928;39;20386;-63
2022/03/12 06:02:49;;;;;;;9.38;7.80;;;;;;;9.02;68.75;101243.63;3596401;39;20055;-62
2022/03/12 06:05:18;;;;;;;10.23;7.63;;;;;;;9.03;69.31;101229.25;3601829;39;20052;-63
2022/03/12 06:07:45;;;;;;;11.30;8.13;;;;;;;9.02;69.38;101235.56;3599201;39;20059;-63
2022/03/12 06:10:22;;;;;;;33.72;21.75;;;;;;;9.02;69.85;101235.56;3597065;39;20066;-63
2022/03/12 06:12:48;;;;;;;12.73;8.40;;;;;;;9.02;68.96;101235.56;3598501;39;20059;-63
2022/03/12 06:15:17;;;;;;;10.73;7.60;;;;;;;9.02;69.84;101245.44;3597444;39;20116;-65
2022/03/12 06:17:45;;;;;;;10.35;7.13;;;;;;;9.02;69.67;101243.63;3595809;39;20055;-66
2022/03/12 06:20:12;;;;;;;10.02;7.65;;;;;;;9.03;69.67;101248.03;3598982;39;20068;-66
2022/03/12 06:22:39;;;;;;;12.02;8.73;;;;;;;9.02;70.07;101251.66;3599797;39;20286;-66
2022/03/12 06:25:09;;;;;;;12.10;8.82;;;;;;;9.04;69.54;101252.47;3601908;39;20067;-66
2022/03/12 06:27:37;;;;;;;10.48;7.95;;;;;;;9.05;68.98;101251.53;3601139;39;20091;-66
2022/03/12 06:30:10;;;;;;;10.27;8.25;;;;;;;9.09;69.87;101260.28;3601574;39;20400;-66
2022/03/12 06:32:39;;;;;;;10.35;7.93;;;;;;;9.14;69.97;101260.06;3601937;39;20099;-66
2022/03/12 06:35:06;;;;;;;14.82;7.93;;;;;;;9.18;69.34;101261.66;3601310;39;20476;-66
2022/03/12 06:37:32;;;;;;;10.70;7.93;;;;;;;9.16;69.76;101252.78;3600101;39;20313;-66
2022/03/12 06:40:00;;;;;;;10.45;7.75;;;;;;;9.28;69.22;101252.19;3601409;39;20044;-66
2022/03/12 06:42:29;;;;;;;15.38;8.10;;;;;;;9.33;69.29;101260.91;3601820;39;20051;-66
2022/03/12 06:44:55;;;;;;;12.00;7.65;;;;;;;9.38;69.88;101261.53;3601647;39;20050;-67
2022/03/12 06:47:24;;;;;;;13.65;7.72;;;;;;;9.42;69.86;101271.19;3601720;39;20062;-66
2022/03/12 06:49:50;;;;;;;11.32;7.80;;;;;;;9.46;69.48;101267.38;3598977;39;20389;-66
2022/03/12 06:52:15;;;;;;;10.45;7.93;;;;;;;9.50;68.99;101271.66;3599098;39;20125;-66
2022/03/12 06:54:41;;;;;;;9.20;7.60;;;;;;;9.59;69.34;101278.38;3600610;39;20059;-66
2022/03/12 06:57:06;;;;;;;10.10;7.40;;;;;;;9.62;69.22;101272.84;3600557;39;20066;-66
2022/03/12 06:59:32;;;;;;;11.10;7.55;;;;;;;9.67;68.87;101275.28;3597942;39;20047;-66
2022/03/12 07:01:58;;;;;;;8.43;6.72;;;;;;;9.73;68.54;101277.66;3600123;39;20046;-66
2022/03/12 07:04:24;;;;;;;10.10;7.63;;;;;;;9.76;69.11;101281.06;3601057;39;20066;-66
2022/03/12 07:06:50;;;;;;;9.60;7.30;;;;;;;9.46;68.51;101223.59;3598026;39;20407;-66
2022/03/12 07:09:17;;;;;;;10.30;7.47;;;;;;;9.88;68.95;101284.94;3600086;39;20047;-66
2022/03/12 07:11:44;;;;;;;10.07;6.80;;;;;;;9.93;68.37;101282.03;3599688;39;20309;-66
2022/03/12 07:14:10;;;;;;;9.15;7.10;;;;;;;9.98;67.89;101285.31;3597647;39;20071;-66
2022/03/12 07:16:36;;;;;;;9.73;7.53;;;;;;;10.04;68.58;101289.50;3597629;39;20339;-66
2022/03/12 07:19:03;;;;;;;9.73;7.10;;;;;;;10.10;67.46;101290.06;3601673;39;20048;-66
2022/03/12 07:21:29;;;;;;;9.68;7.00;;;;;;;10.16;68.14;101291.56;3602166;39;20074;-66
2022/03/12 07:23:55;;;;;;;10.15;7.00;;;;;;;10.20;67.46;101290.44;3602192;39;20053;-66
2022/03/12 07:26:21;;;;;;;8.77;7.03;;;;;;;10.28;67.04;101301.69;3601553;39;20055;-66
2022/03/12 07:28:48;;;;;;;9.65;7.35;;;;;;;10.32;66.77;101307.78;3599668;39;20070;-66
2022/03/12 07:31:16;;;;;;;8.60;7.20;;;;;;;10.38;67.27;101315.50;3604696;39;20124;-66
2022/03/12 07:33:43;;;;;;;9.70;7.75;;;;;;;10.44;67.21;101315.19;3606007;39;20039;-66
2022/03/12 07:36:09;;;;;;;11.35;7.28;;;;;;;10.60;66.68;101320.59;3602252;39;20106;-66
2022/03/12 07:38:35;;;;;;;9.60;6.65;;;;;;;10.72;66.15;101319.94;3601552;39;20108;-66
2022/03/12 07:41:00;;;;;;;9.63;7.90;;;;;;;10.84;65.65;101324.63;3600932;39;20044;-66
2022/03/12 07:43:26;;;;;;;9.20;7.50;;;;;;;10.98;65.48;101326.56;3600890;39;20127;-66
2022/03/12 07:45:52;;;;;;;8.75;6.95;;;;;;;11.18;64.98;101332.66;3600484;39;20247;-66
2022/03/12 07:48:18;;;;;;;14.27;7.30;;;;;;;11.38;63.37;101330.59;3599532;39;20063;-66
2022/03/12 07:50:44;;;;;;;11.00;7.22;;;;;;;11.55;63.27;101339.50;3595769;39;20064;-66
2022/03/12 07:53:12;;;;;;;8.02;6.63;;;;;;;11.43;62.98;101289.94;3601742;39;20040;-66
2022/03/12 07:55:40;;;;;;;10.27;7.38;;;;;;;11.77;62.02;101331.91;3601219;39;20302;-66
2022/03/12 07:58:06;;;;;;;8.10;6.80;;;;;;;11.87;62.42;101336.81;3598700;39;20362;-66
2022/03/12 08:00:31;;;;;;;8.05;7.05;;;;;;;11.99;62.23;101339.63;3602082;39;20331;-66
2022/03/12 08:02:58;;;;;;;10.13;6.90;;;;;;;12.17;62.09;101350.25;3601014;39;20057;-66
2022/03/12 08:05:25;;;;;;;8.73;7.00;;;;;;;12.35;61.20;101353.69;3599815;39;20104;-65
2022/03/12 08:07:54;;;;;;;9.13;6.97;;;;;;;12.41;60.50;101347.91;3600414;39;20055;-65
2022/03/12 08:10:21;;;;;;;7.82;6.63;;;;;;;12.49;59.91;101356.38;3600810;39;20055;-65
2022/03/12 08:12:49;;;;;;;9.63;7.10;;;;;;;12.55;59.60;101358.69;3598912;39;20113;-64
2022/03/12 08:15:16;;;;;;;8.95;6.38;;;;;;;12.60;59.59;101366.53;3600682;39;20051;-65
2022/03/12 08:17:45;;;;;;;10.65;7.03;;;;;;;12.66;59.95;101363.47;3597049;39;20120;-66
2022/03/12 08:20:11;;;;;;;11.07;6.88;;;;;;;12.72;59.85;101365.78;3593914;39;20125;-66
2022/03/12 08:22:45;;;;;;;8.35;6.65;;;;;;;12.83;59.38;101365.94;3599549;39;20132;-65
2022/03/12 08:25:14;;;;;;;8.82;6.30;;;;;;;12.98;58.48;101364.13;3596017;39;20048;-66
2022/03/12 08:27:40;;;;;;;9.65;6.65;;;;;;;13.13;58.61;101373.97;3597152;39;20054;-65
2022/03/12 08:30:08;;;;;;;8.02;6.22;;;;;;;13.31;57.67;101376.47;3599564;39;20079;-66
2022/03/12 08:32:36;;;;;;;7.18;6.25;;;;;;;13.50;57.36;101368.03;3598394;39;20094;-66
2022/03/12 08:35:05;;;;;;;7.97;6.20;;;;;;;13.65;57.56;101378.69;3599599;39;20056;-65
2022/03/12 08:37:33;;;;;;;8.32;6.05;;;;;;;13.87;56.90;101385.38;3599526;39;20083;-65
2022/03/12 08:40:02;;;;;;;10.18;6.45;;;;;;;14.03;55.89;101386.09;3597582;39;20055;-65
2022/03/12 08:42:28;;;;;;;9.45;6.15;;;;;;;14.13;55.50;101387.19;3598996;39;20368;-65
2022/03/12 08:44:54;;;;;;;9.73;6.30;;;;;;;14.25;55.67;101390.03;3600497;39;20059;-65
2022/03/12 08:47:19;;;;;;;7.00;5.75;;;;;;;14.39;54.86;101392.66;3595383;39;20128;-65
2022/03/12 08:49:45;;;;;;;7.47;6.35;;;;;;;14.49;54.73;101388.34;3594268;39;20120;-66
2022/03/12 08:52:10;;;;;;;7.22;5.75;;;;;;;14.56;54.28;101389.69;3596854;39;20112;-65
2022/03/12 08:54:36;;;;;;;7.00;4.70;;;;;;;14.65;53.37;101387.31;3596772;39;20393;-65
2022/03/12 08:57:02;;;;;;;7.45;4.97;;;;;;;14.65;53.47;101392.72;3596466;39;20426;-66
2022/03/12 08:59:27;;;;;;;8.90;4.32;;;;;;;14.63;52.90;101399.09;3597589;39;20063;-65
2022/03/12 09:01:54;;;;;;;7.82;4.20;;;;;;;14.57;52.45;101402.25;3596752;39;20055;-65
2022/03/12 09:04:19;;;;;;;7.18;4.20;;;;;;;14.47;53.07;101400.25;3597184;39;20055;-65
2022/03/12 09:06:47;;;;;;;8.90;4.15;;;;;;;14.53;53.23;101391.75;3601509;39;20051;-65
2022/03/12 09:09:13;;;;;;;5.78;4.43;;;;;;;14.67;52.33;101401.59;3601906;39;20381;-65
2022/03/12 09:11:39;;;;;;;8.82;4.45;;;;;;;14.39;52.48;101352.06;3599323;39;20116;-66
2022/03/12 09:14:05;;;;;;;6.68;4.35;;;;;;;14.67;52.68;101396.19;3598828;39;20064;-65
2022/03/12 09:16:30;;;;;;;9.27;4.50;;;;;;;14.67;52.08;101398.91;3601549;39;20062;-66
2022/03/12 09:18:56;;;;;;;6.10;4.13;;;;;;;14.67;52.55;101407.00;3601186;39;20278;-65
2022/03/12 09:21:22;;;;;;;9.90;4.53;;;;;;;14.65;52.66;101407.09;3601860;39;20055;-65
2022/03/12 09:23:47;;;;;;;6.35;4.00;;;;;;;14.63;51.81;101411.78;3601322;39;20070;-66
2022/03/12 09:26:14;;;;;;;6.32;3.80;;;;;;;14.63;51.59;101407.22;3601674;39;20091;-65
2022/03/12 09:28:40;;;;;;;5.40;3.38;;;;;;;14.53;50.78;101411.56;3599725;39;20075;-65
2022/03/12 09:31:06;;;;;;;6.05;3.50;;;;;;;14.49;50.18;101409.13;3599047;39;20093;-65
2022/03/12 09:33:32;;;;;;;8.02;3.65;;;;;;;14.44;51.14;101412.16;3599616;39;20117;-65
2022/03/12 09:35:58;;;;;;;4.95;3.22;;;;;;;14.44;50.76;101392.34;3596141;39;20059;-65
2022/03/12 09:38:25;;;;;;;6.60;3.65;;;;;;;14.53;50.34;101400.72;3598291;39;20067;-65
2022/03/12 09:40:51;;;;;;;5.70;2.88;;;;;;;14.59;49.62;101408.41;3598287;39;20058;-65
2022/03/12 09:43:17;;;;;;;8.45;3.00;;;;;;;14.63;49.37;101404.53;3599114;39;20067;-65
2022/03/12 09:45:43;;;;;;;5.40;2.90;;;;;;;14.69;49.25;101415.91;3598992;39;20297;-65
2022/03/12 09:48:09;;;;;;;4.25;3.00;;;;;;;14.66;48.60;101405.28;3598007;39;20048;-64
2022/03/12 09:50:37;;;;;;;7.60;3.60;;;;;;;14.60;49.13;101404.72;3597518;39;20069;-65
2022/03/12 09:53:04;;;;;;;6.47;2.92;;;;;;;14.59;49.07;101408.41;3599140;39;20054;-65
2022/03/12 09:55:31;;;;;;;6.10;2.70;;;;;;;14.58;49.06;101411.22;3597331;39;20421;-64
2022/03/12 09:57:56;;;;;;;5.85;2.60;;;;;;;14.58;48.61;101420.19;3612833;22;20047;-64
2022/03/12 10:00:25;;;;;;;9.60;3.13;;;;;;;14.55;48.05;101415.00;3587785;40;20131;-61
2022/03/12 10:02:51;;;;;;;4.60;2.80;;;;;;;14.47;48.63;101421.91;3589127;40;20074;-62
2022/03/12 10:05:17;;;;;;;7.10;2.80;;;;;;;14.58;49.09;101425.59;3588853;40;20060;-62
2022/03/12 10:07:43;;;;;;;6.65;2.90;;;;;;;14.70;48.33;101414.91;3589309;40;20083;-62
2022/03/12 10:10:17;;;;;;;7.95;2.80;;;;;;;14.95;48.47;101433.00;3581446;40;20387;-62
2022/03/12 10:12:45;;;;;;;9.20;2.80;;;;;;;15.01;47.60;101416.34;3588965;40;20079;-62
2022/03/12 10:15:14;;;;;;;7.78;2.97;;;;;;;15.09;47.84;101419.34;3588465;40;20052;-62
2022/03/12 10:17:41;;;;;;;6.88;2.83;;;;;;;15.04;47.59;101406.16;3587828;40;20040;-61
2022/03/12 10:20:10;;;;;;;5.72;2.63;;;;;;;15.20;47.67;101418.59;3588909;40;20397;-62
2022/03/12 10:22:37;;;;;;;8.30;3.20;;;;;;;15.27;46.88;101425.28;3587116;40;20118;-62
2022/03/12 10:25:04;;;;;;;5.00;2.67;;;;;;;15.15;48.01;101396.38;3587208;40;20057;-62
2022/03/12 10:27:30;;;;;;;6.07;3.28;;;;;;;15.52;47.09;101429.81;3585423;40;20045;-62
2022/03/12 10:29:56;;;;;;;8.75;4.30;;;;;;;15.64;45.72;101420.78;3585646;40;20283;-61
2022/03/12 10:32:32;;;;;;;6.28;2.63;;;;;;;15.67;45.74;101419.72;3586639;40;20043;-61
2022/03/12 10:35:01;;;;;;;9.27;2.70;;;;;;;15.51;45.55;101387.44;3578633;40;20048;-61
2022/03/12 10:37:31;;;;;;;4.28;2.58;;;;;;;15.73;45.58;101424.66;3587378;40;20272;-61
2022/03/12 10:40:16;;;;;;;4.63;2.47;;;;;;;15.78;45.83;101417.06;3586996;40;20051;-61
2022/03/12 10:42:51;;;;;;;11.23;4.70;;;;;;;15.95;44.54;101432.97;3587285;40;20052;-61
2022/03/12 10:45:22;;;;;;;6.18;2.30;;;;;;;16.09;44.45;101422.91;3578977;40;20315;-61
2022/03/12 10:47:56;;;;;;;6.68;2.80;;;;;;;16.18;44.34;101422.22;3586640;40;20421;-61
2022/03/12 10:50:27;;;;;;;7.20;2.75;;;;;;;16.47;43.75;101420.84;3588508;40;20451;-62
2022/03/12 10:52:57;;;;;;;7.00;2.90;;;;;;;16.67;44.51;101419.28;3589543;40;20067;-62
2022/03/12 10:55:33;;;;;;;6.47;2.60;;;;;;;16.90;43.07;101422.97;3586393;40;20077;-62
2022/03/12 10:58:07;;;;;;;3.20;2.25;;;;;;;17.16;41.93;101429.03;3586903;40;20059;-62
2022/03/12 11:00:59;;;;;;;6.63;2.60;;;;;;;16.90;41.33;101363.22;3585257;40;20270;-62
2022/03/12 11:03:30;;;;;;;8.85;2.90;;;;;;;17.16;40.75;101412.75;3587874;40;20386;-62
2022/03/12 11:05:57;;;;;;;5.28;2.75;;;;;;;17.10;41.87;101394.22;3587286;40;20062;-62
2022/03/12 11:08:29;;;;;;;6.00;2.63;;;;;;;17.36;40.71;101424.72;3587401;40;20122;-61
2022/03/12 11:11:29;;;;;;;3.22;2.20;;;;;;;17.27;40.51;101398.28;3590800;40;20064;-61
2022/03/12 11:13:58;;;;;;;7.13;2.53;;;;;;;17.53;40.17;101427.91;3574883;40;20061;-61
2022/03/12 11:16:30;;;;;;;7.07;2.30;;;;;;;17.64;40.38;101430.63;3588534;40;20059;-61
2022/03/12 11:19:10;;;;;;;4.47;2.53;;;;;;;17.68;39.44;101440.25;3590398;40;20285;-61
2022/03/12 11:21:51;;;;;;;6.10;2.60;;;;;;;17.56;39.11;101427.66;3587165;40;20056;-61
2022/03/12 11:24:54;;;;;;;6.40;2.40;;;;;;;17.66;40.22;101425.03;3587733;39;20064;-61